createdAt,value
2019-05-25T00:02:23.706Z,98901.25
2019-05-25T00:04:52.114Z,98903.92
2019-05-25T00:07:20.632Z,98903.92
2019-05-25T00:09:49.041Z,98900.58
2019-05-25T00:12:17.452Z,98901.23
2019-05-25T00:14:45.998Z,98893.46
2019-05-25T00:17:14.407Z,98902.09
2019-05-25T00:19:42.844Z,98904.48
2019-05-25T00:22:11.272Z,98901.41
2019-05-25T00:24:39.686Z,98900.83
2019-05-25T00:27:08.115Z,98904.20
2019-05-25T00:29:36.547Z,98900.42
2019-05-25T00:32:05.630Z,98904.27
2019-05-25T00:34:34.047Z,98911.37
2019-05-25T00:37:02.495Z,98901.56
2019-05-25T00:39:30.908Z,98903.21
2019-05-25T00:41:59.335Z,98902.16
2019-05-25T00:44:27.794Z,98894.23
2019-05-25T00:46:56.187Z,98901.95
2019-05-25T00:49:24.606Z,98905.18
2019-05-25T00:51:53.010Z,98907.78
2019-05-25T00:54:28.119Z,98907.38
2019-05-25T00:56:51.595Z,98903.61
2019-05-25T00:59:20.005Z,98906.02
2019-05-25T01:01:48.422Z,98907.52
2019-05-25T01:04:16.848Z,98912.80
2019-05-25T01:06:45.282Z,98918.83
2019-05-25T01:09:13.677Z,98918.83
2019-05-25T01:11:42.088Z,98914.41
2019-05-25T01:14:10.599Z,98916.14
2019-05-25T01:16:39.058Z,98921.10
2019-05-25T01:19:07.441Z,98922.58
2019-05-25T01:21:35.837Z,98923.16
2019-05-25T01:24:04.615Z,98920.84
2019-05-25T01:26:33.020Z,98926.83
2019-05-25T01:29:04.993Z,98918.87
2019-05-25T01:31:33.404Z,98919.70
2019-05-25T01:34:01.846Z,98920.51
2019-05-25T01:36:30.246Z,98918.87
2019-05-25T01:38:58.666Z,98920.13
2019-05-25T01:41:27.079Z,98916.91
2019-05-25T01:43:55.550Z,98918.63
2019-05-25T01:46:24.640Z,98919.81
2019-05-25T01:48:53.054Z,98915.96
2019-05-25T01:51:21.471Z,98917.56
2019-05-25T01:53:49.925Z,98916.06
2019-05-25T01:56:18.338Z,98908.73
2019-05-25T01:58:46.765Z,98912.27
2019-05-25T02:01:15.182Z,98910.91
2019-05-25T02:03:43.582Z,98911.94
2019-05-25T02:06:12.031Z,98916.77
2019-05-25T02:08:40.434Z,98912.17
2019-05-25T02:11:08.944Z,98914.44
2019-05-25T02:13:37.358Z,98907.46
2019-05-25T02:16:05.789Z,98910.22
2019-05-25T02:18:34.183Z,98916.13
2019-05-25T02:21:02.623Z,98919.17
2019-05-25T02:23:31.059Z,98914.25
2019-05-25T02:25:59.463Z,98912.27
2019-05-25T02:28:27.902Z,98911.17
2019-05-25T02:30:56.356Z,98914.70
2019-05-25T02:33:25.118Z,98915.77
2019-05-25T02:35:53.546Z,98910.03
2019-05-25T02:38:22.296Z,98914.47
2019-05-25T02:40:50.766Z,98921.13
2019-05-25T02:43:19.204Z,98919.26
2019-05-25T02:45:47.615Z,98922.93
2019-05-25T02:48:16.040Z,98919.66
2019-05-25T02:50:44.541Z,98927.47
2019-05-25T02:53:12.963Z,98919.87
2019-05-25T02:55:41.406Z,98923.09
2019-05-25T02:58:09.801Z,98928.83
2019-05-25T03:00:38.434Z,98926.37
2019-05-25T03:03:06.878Z,98931.67
2019-05-25T03:05:35.292Z,98927.91
2019-05-25T03:08:04.246Z,98933.29
2019-05-25T03:10:32.949Z,98939.84
2019-05-25T03:13:03.059Z,98935.27
2019-05-25T03:15:31.592Z,98932.76
2019-05-25T03:18:00.064Z,98937.18
2019-05-25T03:20:28.596Z,98949.04
2019-05-25T03:22:57.036Z,98947.80
2019-05-25T03:25:25.643Z,98943.98
2019-05-25T03:27:54.056Z,98947.59
2019-05-25T03:30:31.647Z,98946.30
2019-05-25T03:33:00.061Z,98955.37
2019-05-25T03:35:28.604Z,98952.13
2019-05-25T03:37:57.745Z,98952.78
2019-05-25T03:40:26.137Z,98953.55
2019-05-25T03:42:54.637Z,98961.00
2019-05-25T03:45:23.143Z,98961.00
2019-05-25T03:47:51.573Z,98959.11
2019-05-25T03:50:20.354Z,98955.64
2019-05-25T03:52:48.768Z,98958.02
2019-05-25T03:55:17.319Z,98962.25
2019-05-25T03:57:45.732Z,98962.08
2019-05-25T04:00:14.969Z,98966.83
2019-05-25T04:02:43.393Z,98966.88
2019-05-25T04:05:11.940Z,98970.55
2019-05-25T04:07:40.419Z,98966.55
2019-05-25T04:10:09.128Z,98972.45
2019-05-25T04:12:37.541Z,98969.38
2019-05-25T04:15:07.325Z,98975.94
2019-05-25T04:17:35.743Z,98980.20
2019-05-25T04:20:06.177Z,98976.59
2019-05-25T04:22:34.605Z,98977.50
2019-05-25T04:25:03.044Z,98977.92
2019-05-25T04:27:31.474Z,98981.88
2019-05-25T04:30:00.014Z,98987.95
2019-05-25T04:32:28.421Z,98997.12
2019-05-25T04:34:56.845Z,98991.17
2019-05-25T04:37:26.260Z,98993.53
2019-05-25T04:39:54.737Z,99000.26
2019-05-25T04:42:23.224Z,99001.42
2019-05-25T04:44:51.647Z,99007.84
2019-05-25T04:47:26.789Z,99010.06
2019-05-25T04:49:50.221Z,99010.07
2019-05-25T04:52:18.664Z,99005.15
2019-05-25T04:54:47.076Z,99006.59
2019-05-25T04:57:16.886Z,99011.95
2019-05-25T04:59:45.552Z,99011.38
2019-05-25T05:02:13.951Z,99013.29
2019-05-25T05:04:42.439Z,99020.41
2019-05-25T05:07:10.877Z,99012.48
2019-05-25T05:09:39.284Z,99018.25
2019-05-25T05:12:07.710Z,99010.50
2019-05-25T05:14:36.134Z,99010.53
2019-05-25T05:17:04.617Z,99002.48
2019-05-25T05:19:33.119Z,99005.16
2019-05-25T05:22:02.668Z,99007.53
2019-05-25T05:24:31.691Z,99004.08
2019-05-25T05:27:00.104Z,99003.00
2019-05-25T05:29:28.544Z,99005.00
2019-05-25T05:31:56.950Z,99013.03
2019-05-25T05:34:25.479Z,99007.48
2019-05-25T05:36:54.423Z,99012.42
2019-05-25T05:39:24.556Z,99020.28
2019-05-25T05:41:54.885Z,99019.23
2019-05-25T05:44:26.442Z,99009.01
2019-05-25T05:46:57.833Z,99014.62
2019-05-25T05:49:29.324Z,99006.48
2019-05-25T05:52:00.802Z,99004.85
2019-05-25T05:54:31.057Z,99007.19
2019-05-25T05:57:11.966Z,99006.80
2019-05-25T05:59:29.616Z,99020.14
2019-05-25T06:01:58.124Z,99016.41
2019-05-25T06:04:27.145Z,99015.75
2019-05-25T06:06:55.678Z,99014.50
2019-05-25T06:09:24.104Z,99011.36
2019-05-25T06:11:52.538Z,99020.40
2019-05-25T06:14:20.989Z,99021.77
2019-05-25T06:16:50.382Z,99023.19
2019-05-25T06:19:18.821Z,99019.55
2019-05-25T06:21:47.317Z,99024.67
2019-05-25T06:24:15.745Z,99025.11
2019-05-25T06:26:44.138Z,99027.26
2019-05-25T06:29:12.575Z,99036.17
2019-05-25T06:31:41.057Z,99031.39
2019-05-25T06:34:09.475Z,99037.19
2019-05-25T06:36:37.884Z,99035.63
2019-05-25T06:39:08.011Z,99038.86
2019-05-25T06:41:36.498Z,99043.11
2019-05-25T06:44:05.542Z,99051.39
2019-05-25T06:46:33.964Z,99043.19
2019-05-25T06:49:02.437Z,99045.89
2019-05-25T06:51:30.864Z,99046.78
2019-05-25T06:53:59.254Z,99046.36
2019-05-25T06:56:27.678Z,99042.98
2019-05-25T06:58:56.087Z,99045.84
2019-05-25T07:01:24.507Z,99049.17
2019-05-25T07:03:52.902Z,99044.56
2019-05-25T07:06:21.344Z,99047.05
2019-05-25T07:08:49.794Z,99047.01
2019-05-25T07:11:18.248Z,99050.78
2019-05-25T07:13:46.798Z,99053.31
2019-05-25T07:16:15.240Z,99058.27
2019-05-25T07:18:43.641Z,99054.33
2019-05-25T07:21:12.093Z,99057.00
2019-05-25T07:23:40.521Z,99056.03
2019-05-25T07:26:08.928Z,99054.44
2019-05-25T07:28:37.341Z,99054.91
2019-05-25T07:31:05.846Z,99056.81
2019-05-25T07:33:34.285Z,99064.12
2019-05-25T07:36:07.309Z,99058.81
2019-05-25T07:38:32.894Z,99053.06
2019-05-25T07:41:01.317Z,99065.73
2019-05-25T07:43:29.722Z,99060.78
2019-05-25T07:45:58.250Z,99067.51
2019-05-25T07:48:26.760Z,99069.69
2019-05-25T07:50:55.167Z,99065.30
2019-05-25T07:53:23.598Z,99065.22
2019-05-25T07:55:52.629Z,99067.16
2019-05-25T07:58:21.041Z,99060.34
2019-05-25T08:00:49.478Z,99061.70
2019-05-25T08:03:17.896Z,99068.19
2019-05-25T08:05:46.306Z,99068.85
2019-05-25T08:08:14.797Z,99065.33
2019-05-25T08:10:43.376Z,99070.42
2019-05-25T08:13:11.830Z,99061.70
2019-05-25T08:15:40.220Z,99060.97
2019-05-25T08:18:08.657Z,99057.42
2019-05-25T08:20:37.183Z,99069.34
2019-05-25T08:23:05.686Z,99064.80
2019-05-25T08:25:34.123Z,99067.45
2019-05-25T08:28:02.582Z,99064.86
2019-05-25T08:30:30.978Z,99063.81
2019-05-25T08:32:59.452Z,99070.14
2019-05-25T08:35:28.680Z,99068.69
2019-05-25T08:37:57.067Z,99066.77
2019-05-25T08:40:25.510Z,99062.81
2019-05-25T08:42:53.912Z,99059.98
2019-05-25T08:45:25.784Z,99061.89
2019-05-25T08:47:52.543Z,99069.23
2019-05-25T08:50:36.854Z,99067.11
2019-05-25T08:52:51.173Z,99067.45
2019-05-25T08:55:19.646Z,99060.14
2019-05-25T08:57:48.352Z,99070.92
2019-05-25T09:00:16.853Z,99076.19
2019-05-25T09:02:45.293Z,99076.06
2019-05-25T09:05:13.970Z,99072.34
2019-05-25T09:07:42.367Z,99076.98
2019-05-25T09:10:11.534Z,99076.22
2019-05-25T09:12:39.958Z,99076.45
2019-05-25T09:15:09.607Z,99077.97
2019-05-25T09:17:38.045Z,99077.91
2019-05-25T09:20:08.322Z,99070.42
2019-05-25T09:22:36.752Z,99073.75
2019-05-25T09:25:09.107Z,99080.86
2019-05-25T09:27:37.585Z,99087.89
2019-05-25T09:30:08.763Z,99079.47
2019-05-25T09:32:37.263Z,99083.33
2019-05-25T09:35:07.414Z,99074.75
2019-05-25T09:37:35.820Z,99073.70
2019-05-25T09:40:05.160Z,99072.11
2019-05-25T09:42:33.590Z,99080.92
2019-05-25T09:45:02.053Z,99083.30
2019-05-25T09:47:30.461Z,99082.47
2019-05-25T09:49:59.450Z,99086.98
2019-05-25T09:52:27.847Z,99085.03
2019-05-25T09:54:56.240Z,99082.53
2019-05-25T09:57:24.661Z,99084.38
2019-05-25T09:59:53.357Z,99083.34
2019-05-25T10:02:21.828Z,99074.22
2019-05-25T10:04:50.256Z,99076.26
2019-05-25T10:07:18.742Z,99071.98
2019-05-25T10:09:47.162Z,99070.92
2019-05-25T10:12:16.354Z,99071.48
2019-05-25T10:14:44.960Z,99069.78
2019-05-25T10:17:13.368Z,99071.49
2019-05-25T10:19:41.852Z,99077.34
2019-05-25T10:22:10.445Z,99071.91
2019-05-25T10:24:38.843Z,99074.61
2019-05-25T10:27:07.278Z,99075.73
2019-05-25T10:29:37.497Z,99079.25
2019-05-25T10:32:05.861Z,99077.70
2019-05-25T10:34:34.276Z,99077.91
2019-05-25T10:37:02.728Z,99071.50
2019-05-25T10:39:31.221Z,99072.63
2019-05-25T10:41:59.892Z,99070.84
2019-05-25T10:44:28.307Z,99069.92
2019-05-25T10:46:56.913Z,99064.58
2019-05-25T10:49:25.396Z,99066.78
2019-05-25T10:51:53.856Z,99067.30
2019-05-25T10:54:22.376Z,99066.73
2019-05-25T10:56:50.914Z,99062.00
2019-05-25T10:59:19.332Z,99059.42
2019-05-25T11:01:47.753Z,99064.15
2019-05-25T11:04:16.255Z,99058.25
2019-05-25T11:06:44.658Z,99060.78
2019-05-25T11:09:13.087Z,99060.40
2019-05-25T11:11:41.481Z,99057.64
2019-05-25T11:14:09.921Z,99060.80
2019-05-25T11:16:38.381Z,99055.94
2019-05-25T11:19:06.800Z,99055.84
2019-05-25T11:21:35.254Z,99060.36
2019-05-25T11:24:03.834Z,99062.08
2019-05-25T11:26:32.316Z,99059.58
2019-05-25T11:29:00.742Z,99052.85
2019-05-25T11:31:29.301Z,99052.41
2019-05-25T11:33:57.876Z,99053.58
2019-05-25T11:36:26.458Z,99046.43
2019-05-25T11:38:54.888Z,99038.54
2019-05-25T11:41:23.286Z,99038.54
2019-05-25T11:43:51.773Z,99040.20
2019-05-25T11:46:20.224Z,99045.05
2019-05-25T11:48:48.607Z,99044.98
2019-05-25T11:51:17.030Z,99042.06
2019-05-25T11:53:45.486Z,99041.37
2019-05-25T11:56:13.900Z,99041.23
2019-05-25T11:58:47.386Z,99039.67
2019-05-25T12:01:12.549Z,99051.34
2019-05-25T12:03:40.946Z,99051.34
2019-05-25T12:06:09.387Z,99038.69
2019-05-25T12:08:37.846Z,99038.69
2019-05-25T12:11:06.258Z,99034.98
2019-05-25T12:13:34.736Z,99032.46
2019-05-25T12:16:03.140Z,99023.52
2019-05-25T12:18:31.575Z,99025.78
2019-05-25T12:21:00.717Z,99025.56
2019-05-25T12:23:29.228Z,99030.55
2019-05-25T12:25:57.669Z,99027.97
2019-05-25T12:28:26.082Z,99025.66
2019-05-25T12:30:54.494Z,99026.48
2019-05-25T12:33:22.912Z,99021.69
2019-05-25T12:35:51.383Z,99019.64
2019-05-25T12:38:19.767Z,99021.44
2019-05-25T12:40:53.520Z,99015.67
2019-05-25T12:43:18.337Z,99015.23
2019-05-25T12:45:46.903Z,99013.66
2019-05-25T12:48:15.337Z,99019.79
2019-05-25T12:50:43.777Z,99018.11
2019-05-25T12:53:12.229Z,99019.50
2019-05-25T12:55:40.610Z,99016.63
2019-05-25T12:58:09.059Z,99014.99
2019-05-25T13:00:37.498Z,99012.52
2019-05-25T13:03:05.913Z,99010.22
2019-05-25T13:05:34.887Z,99012.00
2019-05-25T13:08:03.317Z,99009.34
2019-05-25T13:10:31.724Z,99007.30
2019-05-25T13:13:02.220Z,99010.47
2019-05-25T13:15:31.305Z,99011.52
2019-05-25T13:17:59.728Z,99009.63
2019-05-25T13:20:28.174Z,99016.10
2019-05-25T13:22:56.584Z,99015.92
2019-05-25T13:25:24.996Z,99011.27
2019-05-25T13:27:53.444Z,99015.84
2019-05-25T13:30:22.095Z,99020.13
2019-05-25T13:32:50.513Z,99010.67
2019-05-25T13:35:19.005Z,99014.13
2019-05-25T13:37:47.466Z,99001.84
2019-05-25T13:40:16.100Z,99000.08
2019-05-25T13:42:44.524Z,99000.84
2019-05-25T13:45:13.099Z,99006.99
2019-05-25T13:47:41.540Z,99007.31
2019-05-25T13:50:10.783Z,99010.14
2019-05-25T13:52:39.215Z,99003.00
2019-05-25T13:55:08.153Z,99004.52
2019-05-25T13:57:36.556Z,99010.74
2019-05-25T14:00:09.102Z,99009.30
2019-05-25T14:02:37.685Z,99008.88
2019-05-25T14:05:07.234Z,99011.25
2019-05-25T14:07:35.636Z,98998.53
2019-05-25T14:10:06.809Z,99001.42
2019-05-25T14:12:35.227Z,99002.20
2019-05-25T14:15:05.533Z,98998.48
2019-05-25T14:17:33.942Z,99005.27
2019-05-25T14:20:02.605Z,99007.28
2019-05-25T14:22:31.884Z,99005.31
2019-05-25T14:25:00.379Z,99002.19
2019-05-25T14:27:28.786Z,98991.88
2019-05-25T14:29:57.201Z,98994.42
2019-05-25T14:32:25.661Z,98993.73
2019-05-25T14:34:54.114Z,99003.79
2019-05-25T14:37:22.523Z,99001.72
2019-05-25T14:39:50.984Z,98997.19
2019-05-25T14:42:19.401Z,98994.88
2019-05-25T14:44:47.833Z,98991.12
2019-05-25T14:47:16.245Z,98995.34
2019-05-25T14:49:44.647Z,98996.80
2019-05-25T14:52:13.049Z,98989.48
2019-05-25T14:54:41.451Z,98991.81
2019-05-25T14:57:09.881Z,98993.59
2019-05-25T14:59:38.340Z,98989.23
2019-05-25T15:02:06.750Z,98989.43
2019-05-25T15:04:35.166Z,98981.08
2019-05-25T15:07:03.732Z,98982.86
2019-05-25T15:09:32.370Z,98976.62
2019-05-25T15:12:00.772Z,98987.30
2019-05-25T15:14:29.185Z,98979.59
2019-05-25T15:16:57.624Z,98979.04
2019-05-25T15:19:26.026Z,98974.53
2019-05-25T15:21:54.509Z,98972.64
2019-05-25T15:24:22.936Z,98978.61
2019-05-25T15:26:51.343Z,98974.27
2019-05-25T15:29:19.758Z,98976.23
2019-05-25T15:31:48.225Z,98971.89
2019-05-25T15:34:16.606Z,98974.20
2019-05-25T15:36:45.012Z,98980.11
2019-05-25T15:39:13.423Z,98978.63
2019-05-25T15:41:41.833Z,98982.18
2019-05-25T15:44:10.253Z,98984.43
2019-05-25T15:46:38.755Z,98987.70
2019-05-25T15:49:07.218Z,98988.23
2019-05-25T15:51:35.646Z,98987.87
2019-05-25T15:54:04.535Z,98981.91
2019-05-25T15:56:33.039Z,98986.34
2019-05-25T15:59:01.433Z,98985.05
2019-05-25T16:01:29.869Z,98986.30
2019-05-25T16:03:58.289Z,98983.98
2019-05-25T16:06:26.707Z,98987.28
2019-05-25T16:08:55.191Z,98982.68
2019-05-25T16:11:23.620Z,98981.73
2019-05-25T16:13:52.024Z,98979.28
2019-05-25T16:16:29.745Z,98980.25
2019-05-25T16:18:50.587Z,98974.03
2019-05-25T16:21:19.020Z,98975.53
2019-05-25T16:23:47.455Z,98975.50
2019-05-25T16:26:15.898Z,98976.79
2019-05-25T16:28:44.289Z,98979.01
2019-05-25T16:31:12.691Z,98977.22
2019-05-25T16:33:41.098Z,98983.84
2019-05-25T16:36:09.554Z,98973.73
2019-05-25T16:38:37.985Z,98973.73
2019-05-25T16:41:06.405Z,98982.80
2019-05-25T16:43:40.822Z,98975.06
2019-05-25T16:46:09.242Z,98983.61
2019-05-25T16:48:37.642Z,98973.58
2019-05-25T16:51:06.054Z,98974.97
2019-05-25T16:53:34.458Z,98968.89
2019-05-25T16:56:03.429Z,98968.27
2019-05-25T16:58:31.856Z,98963.39
2019-05-25T17:01:00.447Z,98967.62
2019-05-25T17:03:29.323Z,98963.39
2019-05-25T17:05:57.818Z,98963.00
2019-05-25T17:08:26.496Z,98960.89
2019-05-25T17:10:54.913Z,98958.30
2019-05-25T17:13:23.322Z,98952.83
2019-05-25T17:15:51.754Z,98952.13
2019-05-25T17:18:20.179Z,98952.78
2019-05-25T17:20:48.610Z,98950.58
2019-05-25T17:23:17.026Z,98956.26
2019-05-25T17:25:45.461Z,98962.86
2019-05-25T17:28:13.856Z,98961.55
2019-05-25T17:30:44.612Z,98961.01
2019-05-25T17:33:13.608Z,98969.93
2019-05-25T17:35:42.585Z,98963.86
2019-05-25T17:38:10.993Z,98966.03
2019-05-25T17:40:39.465Z,98968.88
2019-05-25T17:43:07.953Z,98965.08
2019-05-25T17:45:36.421Z,98971.13
2019-05-25T17:48:05.751Z,98967.44
2019-05-25T17:50:34.164Z,98965.47
2019-05-25T17:53:02.597Z,98969.62
2019-05-25T17:55:31.001Z,98973.88
2019-05-25T17:57:59.416Z,98972.89
2019-05-25T18:00:39.662Z,98978.48
2019-05-25T18:03:08.429Z,98978.95
2019-05-25T18:05:38.234Z,98978.39
2019-05-25T18:08:07.184Z,98979.86
2019-05-25T18:10:51.351Z,98983.56
2019-05-25T18:13:06.199Z,98977.09
2019-05-25T18:15:34.637Z,98983.78
2019-05-25T18:18:03.093Z,98983.88
2019-05-25T18:20:32.252Z,98985.30
2019-05-25T18:23:00.812Z,98988.95
2019-05-25T18:25:29.253Z,98990.09
2019-05-25T18:27:57.662Z,98998.55
2019-05-25T18:30:27.043Z,98993.36
2019-05-25T18:32:55.458Z,98996.26
2019-05-25T18:35:23.866Z,98993.72
2019-05-25T18:37:52.284Z,98995.50
2019-05-25T18:40:21.057Z,98998.97
2019-05-25T18:42:50.058Z,98997.29
2019-05-25T18:45:18.619Z,98996.08
2019-05-25T18:47:47.043Z,98990.77
2019-05-25T18:50:15.923Z,98996.69
2019-05-25T18:52:44.455Z,98995.44
2019-05-25T18:55:13.482Z,98996.02
2019-05-25T18:57:41.913Z,98996.88
2019-05-25T19:00:11.043Z,98994.75
2019-05-25T19:02:39.614Z,99000.95
2019-05-25T19:05:08.679Z,99000.29
2019-05-25T19:07:37.089Z,98998.12
2019-05-25T19:10:08.104Z,99000.91
2019-05-25T19:12:36.520Z,98998.27
2019-05-25T19:15:08.077Z,98998.00
2019-05-25T19:17:36.534Z,99002.31
2019-05-25T19:20:06.332Z,98996.34
2019-05-25T19:22:34.953Z,98999.48
2019-05-25T19:25:03.550Z,98996.46
2019-05-25T19:27:32.609Z,98994.73
2019-05-25T19:30:01.086Z,99002.44
2019-05-25T19:32:30.026Z,99001.45
2019-05-25T19:35:00.245Z,99000.31
2019-05-25T19:37:29.168Z,99006.30
2019-05-25T19:39:57.575Z,99011.77
2019-05-25T19:42:26.040Z,99016.72
2019-05-25T19:44:55.289Z,99024.63
2019-05-25T19:47:23.726Z,99025.38
2019-05-25T19:49:52.143Z,99029.58
2019-05-25T19:52:20.546Z,99023.64
2019-05-25T19:54:49.168Z,99027.11
2019-05-25T19:57:17.607Z,99027.14
2019-05-25T19:59:46.082Z,99030.05
2019-05-25T20:02:14.675Z,99034.22
2019-05-25T20:04:43.090Z,99041.27
2019-05-25T20:07:11.582Z,99032.86
2019-05-25T20:09:40.056Z,99035.52
2019-05-25T20:12:08.498Z,99044.09
2019-05-25T20:14:36.911Z,99045.56
2019-05-25T20:17:05.402Z,99042.84
2019-05-25T20:19:33.840Z,99044.84
2019-05-25T20:22:02.267Z,99046.97
2019-05-25T20:24:30.675Z,99046.05
2019-05-25T20:27:01.531Z,99045.63
2019-05-25T20:29:29.291Z,99044.20
2019-05-25T20:31:57.958Z,99045.50
2019-05-25T20:34:26.396Z,99049.28
2019-05-25T20:36:54.817Z,99050.07
2019-05-25T20:39:23.278Z,99055.27
2019-05-25T20:41:51.882Z,99056.58
2019-05-25T20:44:20.282Z,99056.47
2019-05-25T20:46:48.712Z,99055.42
2019-05-25T20:49:17.189Z,99061.40
2019-05-25T20:51:45.591Z,99069.47
2019-05-25T20:54:14.035Z,99067.52
2019-05-25T20:56:42.687Z,99073.49
2019-05-25T20:59:11.096Z,99077.84
2019-05-25T21:01:39.513Z,99075.55
2019-05-25T21:04:08.017Z,99077.52
2019-05-25T21:06:36.414Z,99074.25
2019-05-25T21:09:07.547Z,99080.66
2019-05-25T21:11:35.981Z,99071.19
2019-05-25T21:14:04.881Z,99074.62
2019-05-25T21:16:33.303Z,99067.27
2019-05-25T21:19:03.081Z,99073.08
2019-05-25T21:21:31.643Z,99077.88
2019-05-25T21:24:00.061Z,99079.45
2019-05-25T21:26:28.463Z,99080.96
2019-05-25T21:28:56.900Z,99075.07
2019-05-25T21:31:25.317Z,99077.91
2019-05-25T21:33:53.735Z,99073.39
2019-05-25T21:36:22.174Z,99073.97
2019-05-25T21:38:50.590Z,99074.48
2019-05-25T21:41:19.186Z,99067.70
2019-05-25T21:43:47.624Z,99068.75
2019-05-25T21:46:16.037Z,99071.55
2019-05-25T21:48:44.426Z,99070.34
2019-05-25T21:51:12.873Z,99071.91
2019-05-25T21:53:41.298Z,99079.52
2019-05-25T21:56:09.723Z,99070.94
2019-05-25T21:58:38.115Z,99067.16
2019-05-25T22:01:07.028Z,99066.03
2019-05-25T22:03:35.419Z,99065.30
2019-05-25T22:06:04.424Z,99070.64
2019-05-25T22:08:32.827Z,99069.05
2019-05-25T22:11:01.247Z,99067.45
2019-05-25T22:13:29.650Z,99070.24
2019-05-25T22:15:58.082Z,99065.27
2019-05-25T22:18:26.498Z,99065.86
2019-05-25T22:20:54.933Z,99067.80
2019-05-25T22:23:23.355Z,99071.83
2019-05-25T22:25:51.759Z,99067.23
2019-05-25T22:28:20.186Z,99064.30
2019-05-25T22:30:48.624Z,99065.37
2019-05-25T22:33:17.057Z,99066.05
2019-05-25T22:35:45.469Z,99066.09
2019-05-25T22:38:13.895Z,99061.51
2019-05-25T22:40:42.863Z,99060.27
2019-05-25T22:43:11.276Z,99060.67
2019-05-25T22:45:39.698Z,99051.08
2019-05-25T22:48:08.082Z,99052.91
2019-05-25T22:50:37.272Z,99048.30
2019-05-25T22:53:05.720Z,99047.06
2019-05-25T22:55:34.739Z,99043.27
2019-05-25T22:58:03.160Z,99037.36
2019-05-25T23:00:31.759Z,99039.16
2019-05-25T23:03:00.194Z,99039.85
2019-05-25T23:05:28.609Z,99044.06
2019-05-25T23:07:56.999Z,99039.17
2019-05-25T23:10:25.452Z,99038.73
2019-05-25T23:12:53.912Z,99033.97
2019-05-25T23:15:22.469Z,99035.44
2019-05-25T23:17:50.979Z,99030.09
2019-05-25T23:20:19.442Z,99027.32
2019-05-25T23:22:47.864Z,99029.02
2019-05-25T23:25:16.290Z,99031.47
2019-05-25T23:27:44.699Z,99034.00
2019-05-25T23:30:14.370Z,99033.58
2019-05-25T23:32:42.766Z,99028.58
2019-05-25T23:35:11.324Z,99021.05
2019-05-25T23:37:39.804Z,99026.57
2019-05-25T23:40:09.671Z,99022.52
2019-05-25T23:42:38.114Z,99015.95
2019-05-25T23:45:07.971Z,99013.55
2019-05-25T23:47:36.539Z,99022.41
2019-05-25T23:50:08.289Z,99022.79
2019-05-25T23:52:36.781Z,99019.57
2019-05-25T23:55:08.299Z,99020.17
2019-05-25T23:57:36.732Z,99024.28
